Time;durP1;ratioP1;P1;durP2;ratioP2;P2;SDS_P1;SDS_P2;PMS_P1;PMS_P2;Temp;Humidity;BMP_temperature;BMP_pressure;BME280_temperature;BME280_humidity;BME280_pressure;Samples;Min_cycle;Max_cycle;Signal;HPM_P1;HPM_P2
2022/07/14 00:02:22;;;;;;;1.45;1.30;;;;;;;23.08;36.41;99943.31;5092048;28;20452;-37
2022/07/14 00:04:47;;;;;;;2.30;1.25;;;;;;;23.10;36.48;99943.06;5091947;28;20016;-37
2022/07/14 00:07:13;;;;;;;2.60;1.40;;;;;;;23.10;36.44;99946.56;5091536;28;20521;-37
2022/07/14 00:09:38;;;;;;;4.05;1.40;;;;;;;23.07;36.42;99938.19;5091907;28;20035;-37
2022/07/14 00:12:04;;;;;;;2.33;1.25;;;;;;;22.95;36.20;99944.72;5091961;28;20028;-37
2022/07/14 00:14:29;;;;;;;4.13;1.45;;;;;;;23.15;36.48;99951.97;5091622;28;20440;-37
2022/07/14 00:16:55;;;;;;;1.20;1.10;;;;;;;23.18;35.73;99948.69;5092112;28;20111;-37
2022/07/14 00:19:20;;;;;;;3.83;1.17;;;;;;;23.07;36.11;99944.41;5091849;28;20020;-37
2022/07/14 00:21:46;;;;;;;2.03;1.40;;;;;;;23.16;35.96;99945.44;5092311;28;20054;-37
2022/07/14 00:24:12;;;;;;;2.45;1.30;;;;;;;23.32;35.41;99951.59;5091891;28;20024;-37
2022/07/14 00:26:41;;;;;;;3.28;1.40;;;;;;;23.18;35.95;99951.38;5091931;28;20077;-37
2022/07/14 00:29:07;;;;;;;3.40;1.30;;;;;;;23.26;36.02;99951.88;5091502;28;20035;-37
2022/07/14 00:31:33;;;;;;;2.47;1.50;;;;;;;23.25;35.52;99948.38;5092139;28;20079;-37
2022/07/14 00:34:00;;;;;;;3.03;1.40;;;;;;;23.32;35.55;99942.59;5091808;28;20472;-37
2022/07/14 00:36:29;;;;;;;1.75;1.50;;;;;;;23.37;35.54;99948.00;5091844;28;20032;-37
2022/07/14 00:38:55;;;;;;;;;;;;;;;23.31;35.68;99949.94;5092253;28;20020;-37
2022/07/14 00:41:20;;;;;;;4.78;1.35;;;;;;;23.07;35.99;99944.41;5091657;28;20360;-37
2022/07/14 00:43:46;;;;;;;1.30;1.20;;;;;;;23.02;36.29;99939.00;5091890;28;20145;-37
2022/07/14 00:46:11;;;;;;;1.83;1.42;;;;;;;23.00;36.21;99943.91;5091611;28;20655;-37
2022/07/14 00:48:37;;;;;;;4.40;1.40;;;;;;;23.05;36.24;99941.16;5091720;28;20043;-37
2022/07/14 00:51:02;;;;;;;3.50;1.42;;;;;;;22.93;36.61;99930.63;5091247;28;20058;-37
2022/07/14 00:53:27;;;;;;;2.85;1.35;;;;;;;22.91;36.89;99948.28;5091319;28;20137;-37
2022/07/14 00:55:53;;;;;;;3.00;1.30;;;;;;;22.85;36.81;99947.50;5091288;28;20476;-37
2022/07/14 00:58:18;;;;;;;2.33;1.38;;;;;;;22.89;36.52;99943.16;5091194;28;20028;-37
2022/07/14 01:00:44;;;;;;;3.90;1.48;;;;;;;22.94;36.38;99947.72;5090764;28;20024;-38
2022/07/14 01:03:10;;;;;;;2.30;1.50;;;;;;;22.90;36.56;99943.94;5084974;28;20028;-37
2022/07/14 01:05:36;;;;;;;2.08;1.27;;;;;;;22.88;36.83;99948.84;5071238;28;20025;-37
2022/07/14 01:08:02;;;;;;;1.75;1.40;;;;;;;22.85;36.88;99944.81;5069476;28;20391;-36
2022/07/14 01:10:28;;;;;;;3.25;1.40;;;;;;;22.89;36.78;99945.06;5070927;28;20072;-37
2022/07/14 01:12:59;;;;;;;1.60;1.23;;;;;;;22.74;36.78;99937.81;5070005;28;20396;-37
2022/07/14 01:15:24;;;;;;;1.80;1.30;;;;;;;22.67;37.63;99950.84;5070793;28;20403;-37
2022/07/14 01:17:49;;;;;;;1.90;1.55;;;;;;;22.71;37.02;99935.66;5070853;28;20024;-37
2022/07/14 01:20:17;;;;;;;4.57;1.85;;;;;;;22.78;36.90;99942.38;5070585;28;20081;-37
2022/07/14 01:22:43;;;;;;;3.30;1.77;;;;;;;22.75;37.09;99936.69;5070608;28;20185;-36
2022/07/14 01:25:09;;;;;;;2.45;1.40;;;;;;;22.70;37.01;99932.13;5070291;28;20055;-36
2022/07/14 01:27:35;;;;;;;1.45;1.30;;;;;;;22.65;36.99;99948.41;5070279;28;20500;-37
2022/07/14 01:30:01;;;;;;;1.70;1.38;;;;;;;22.62;37.03;99944.38;5070321;28;20046;-36
2022/07/14 01:32:26;;;;;;;3.53;1.50;;;;;;;22.80;36.83;99936.69;5070007;28;20039;-36
2022/07/14 01:34:52;;;;;;;2.55;1.30;;;;;;;22.82;37.02;99938.00;5069936;28;20020;-36
2022/07/14 01:37:18;;;;;;;2.75;1.50;;;;;;;22.94;36.43;99936.88;5069954;28;20449;-37
2022/07/14 01:39:44;;;;;;;3.72;1.50;;;;;;;22.84;36.46;99933.13;5070058;28;20028;-37
2022/07/14 01:42:09;;;;;;;2.28;1.70;;;;;;;23.01;36.52;99940.88;5069930;28;20361;-37
2022/07/14 01:44:34;;;;;;;2.75;1.45;;;;;;;22.94;36.25;99934.97;5069520;28;20436;-38
2022/07/14 01:47:00;;;;;;;1.60;1.45;;;;;;;22.90;36.62;99944.75;5069911;28;20034;-37
2022/07/14 01:49:25;;;;;;;2.30;1.60;;;;;;;22.89;36.56;99936.91;5069769;28;20041;-36
2022/07/14 01:51:51;;;;;;;4.97;1.63;;;;;;;22.92;36.44;99939.84;5069836;28;20021;-37
2022/07/14 01:54:16;;;;;;;4.18;1.58;;;;;;;22.88;36.56;99946.94;5069410;28;20031;-37
2022/07/14 01:56:42;;;;;;;2.83;1.35;;;;;;;23.07;36.22;99946.31;5069497;28;20035;-37
2022/07/14 01:59:08;;;;;;;1.70;1.50;;;;;;;22.87;36.57;99939.91;5077449;28;20043;-37
2022/07/14 02:01:40;;;;;;;3.70;1.70;;;;;;;22.91;36.57;99940.16;5089830;28;20035;-37
2022/07/14 02:04:10;;;;;;;3.60;1.50;;;;;;;22.88;36.63;99940.72;5089464;28;20032;-38
2022/07/14 02:06:43;;;;;;;1.88;1.50;;;;;;;22.89;36.70;99945.84;5089449;28;20020;-38
2022/07/14 02:09:09;;;;;;;4.65;1.52;;;;;;;22.92;36.74;99952.63;5089580;28;20471;-37
2022/07/14 02:14:19;;;;;;;3.67;1.55;;;;;;;22.86;36.61;99945.59;5089688;28;20497;-37
2022/07/14 02:16:44;;;;;;;3.72;1.40;;;;;;;22.82;36.69;99946.16;5089286;28;20028;-38
2022/07/14 02:19:10;;;;;;;5.03;1.60;;;;;;;22.93;36.36;99946.91;5089465;28;20392;-37
2022/07/14 02:21:35;;;;;;;2.92;1.42;;;;;;;22.83;36.82;99946.97;5089812;28;20024;-37
2022/07/14 02:24:01;;;;;;;4.15;1.50;;;;;;;22.83;36.88;99952.41;5088747;28;20101;-38
2022/07/14 02:26:26;;;;;;;3.67;1.50;;;;;;;22.96;36.48;99954.50;5088763;28;20031;-37
2022/07/14 02:28:53;;;;;;;3.15;1.80;;;;;;;22.78;36.51;99944.28;5089714;28;20024;-38
2022/07/14 02:31:18;;;;;;;5.63;1.60;;;;;;;22.82;36.78;99948.06;5089180;28;20085;-37
2022/07/14 02:33:45;;;;;;;2.45;1.48;;;;;;;22.84;36.93;99951.31;5089054;28;20028;-38
2022/07/14 02:36:11;;;;;;;2.60;1.70;;;;;;;22.73;36.71;99960.59;5089085;28;20024;-37
2022/07/14 02:38:36;;;;;;;2.67;1.50;;;;;;;22.86;36.98;99957.25;5088680;28;20365;-36
2022/07/14 02:41:03;;;;;;;3.55;1.60;;;;;;;22.82;36.57;99958.91;5089698;28;20527;-37
2022/07/14 02:43:29;;;;;;;2.28;1.75;;;;;;;22.79;36.84;99965.72;5089802;28;20024;-37
2022/07/14 02:45:54;;;;;;;4.97;1.50;;;;;;;22.77;37.03;99972.50;5088558;28;20028;-37
2022/07/14 02:48:20;;;;;;;6.60;1.52;;;;;;;22.89;36.59;99959.44;5089709;28;20055;-36
2022/07/14 02:50:45;;;;;;;8.77;1.90;;;;;;;22.92;36.31;99961.56;5089643;28;20718;-37
2022/07/14 02:53:11;;;;;;;2.65;1.50;;;;;;;22.82;36.55;99961.63;5089609;28;20244;-37
2022/07/14 02:55:36;;;;;;;1.67;1.58;;;;;;;22.71;36.71;99969.00;5090007;28;20439;-37
2022/07/14 02:58:04;;;;;;;1.75;1.50;;;;;;;22.71;37.03;99963.56;5089571;28;20483;-37
2022/07/14 03:00:30;;;;;;;4.07;1.60;;;;;;;22.66;37.04;99960.91;5070011;28;20033;-37
2022/07/14 03:02:55;;;;;;;6.75;1.65;;;;;;;22.70;37.26;99972.81;5073375;28;20028;-36
2022/07/14 03:05:21;;;;;;;4.20;1.70;;;;;;;22.74;36.84;99973.88;5089747;28;20043;-37
2022/07/14 03:07:46;;;;;;;2.70;1.70;;;;;;;22.71;36.95;99979.03;5089742;28;20055;-37
2022/07/14 03:10:12;;;;;;;2.72;1.70;;;;;;;22.70;36.87;99972.81;5089569;28;20381;-37
2022/07/14 03:12:37;;;;;;;3.92;1.65;;;;;;;22.71;37.15;99968.19;5089749;28;20024;-37
2022/07/14 03:15:03;;;;;;;2.60;1.80;;;;;;;22.68;36.62;99985.03;5089687;28;20743;-37
2022/07/14 03:17:29;;;;;;;2.88;1.70;;;;;;;22.77;36.84;99980.63;5089851;28;20089;-38
2022/07/14 03:19:54;;;;;;;5.28;1.60;;;;;;;22.68;37.15;99980.41;5089499;28;20487;-36
2022/07/14 03:22:20;;;;;;;3.47;1.75;;;;;;;22.57;37.45;99985.06;5090039;28;20039;-36
2022/07/14 03:24:45;;;;;;;2.72;1.80;;;;;;;22.63;37.66;99978.53;5089392;28;20024;-37
2022/07/14 03:27:11;;;;;;;6.07;2.00;;;;;;;22.55;37.10;99973.69;5089477;28;20525;-37
2022/07/14 03:29:40;;;;;;;3.22;1.70;;;;;;;22.63;37.41;99972.28;5089231;28;20107;-37
2022/07/14 03:32:06;;;;;;;3.42;1.80;;;;;;;22.47;37.87;99974.28;5089499;28;20103;-36
2022/07/14 03:34:32;;;;;;;3.30;1.50;;;;;;;22.56;37.44;99977.19;5089132;28;20551;-37
2022/07/14 03:36:57;;;;;;;2.10;1.60;;;;;;;22.66;37.20;99974.47;5092070;28;20030;-37
2022/07/14 03:39:23;;;;;;;5.45;1.80;;;;;;;22.75;37.15;99978.22;5093078;28;20141;-37
2022/07/14 03:41:48;;;;;;;5.32;2.00;;;;;;;22.72;37.24;99983.38;5092681;28;20123;-37
2022/07/14 03:44:13;;;;;;;3.97;1.83;;;;;;;23.21;36.49;99974.47;5092874;28;20390;-37
2022/07/14 03:46:39;;;;;;;2.75;1.70;;;;;;;22.99;36.86;99975.63;5092777;28;20499;-36
2022/07/14 03:49:04;;;;;;;2.47;1.70;;;;;;;23.28;36.55;99974.94;5092941;28;20024;-37
2022/07/14 03:51:31;;;;;;;2.55;1.60;;;;;;;23.45;36.10;99969.09;5092608;28;20032;-36
2022/07/14 03:53:57;;;;;;;2.22;1.50;;;;;;;23.80;35.74;99978.91;5092825;28;20035;-37
2022/07/14 03:56:23;;;;;;;4.03;1.80;;;;;;;24.00;35.15;99971.66;5092976;28;20020;-36
2022/07/14 03:58:48;;;;;;;2.42;1.75;;;;;;;24.39;34.37;99981.56;5091986;28;20028;-35
2022/07/14 04:01:14;;;;;;;4.25;2.50;;;;;;;24.44;34.65;99986.13;5092385;28;20024;-37
2022/07/14 04:03:39;;;;;;;5.07;2.50;;;;;;;24.61;34.10;99988.41;5091848;28;20034;-36
2022/07/14 04:06:05;;;;;;;3.03;1.83;;;;;;;24.95;33.36;99988.22;5092238;28;20036;-37
2022/07/14 04:08:30;;;;;;;4.05;1.95;;;;;;;25.15;33.34;99987.94;5092447;28;20036;-36
2022/07/14 04:10:57;;;;;;;4.78;1.80;;;;;;;25.44;32.84;99983.47;5090974;28;20036;-37
2022/07/14 04:13:22;;;;;;;6.97;2.10;;;;;;;25.64;32.56;99988.56;5091613;28;20035;-37
2022/07/14 04:15:47;;;;;;;3.13;1.80;;;;;;;25.79;32.18;99989.44;5092363;28;20027;-38
2022/07/14 04:18:13;;;;;;;3.97;1.90;;;;;;;26.03;31.94;99992.84;5092168;28;20035;-36
2022/07/14 04:20:38;;;;;;;3.03;1.70;;;;;;;26.21;31.43;99995.78;5092334;28;20024;-37
2022/07/14 04:23:04;;;;;;;3.67;1.90;;;;;;;26.29;31.43;99998.63;5091718;28;20026;-37
2022/07/14 04:25:30;;;;;;;2.50;1.40;;;;;;;26.43;31.66;99995.91;5092087;28;20098;-37
2022/07/14 04:27:55;;;;;;;2.88;1.60;;;;;;;26.79;30.91;100008.00;5091075;28;20028;-35
2022/07/14 04:30:21;;;;;;;3.90;2.03;;;;;;;26.99;30.80;99993.94;5091270;28;20103;-37
2022/07/14 04:32:47;;;;;;;4.00;1.80;;;;;;;27.38;30.39;99999.91;5090695;28;20019;-37
2022/07/14 04:35:12;;;;;;;3.65;1.67;;;;;;;27.54;30.40;99998.41;5090611;28;20028;-38
2022/07/14 04:37:41;;;;;;;3.58;1.80;;;;;;;27.95;29.65;99994.69;5090869;28;20028;-37
2022/07/14 04:40:07;;;;;;;7.72;1.90;;;;;;;28.12;29.66;100009.56;5088969;28;20031;-37
2022/07/14 04:42:32;;;;;;;17.88;2.80;;;;;;;28.51;28.91;100010.69;5090774;28;20028;-37
2022/07/14 04:44:58;;;;;;;6.93;2.08;;;;;;;28.91;28.05;100008.72;5090178;28;20038;-37
2022/07/14 04:47:23;;;;;;;5.22;1.50;;;;;;;28.76;28.05;100006.44;5089552;28;20028;-38
2022/07/14 04:52:32;;;;;;;2.55;1.67;;;;;;;28.99;27.73;100010.66;5090762;28;20050;-37
2022/07/14 04:54:58;;;;;;;3.53;1.83;;;;;;;29.19;27.90;100008.47;5090137;28;20606;-36
2022/07/14 04:57:23;;;;;;;4.03;1.65;;;;;;;29.73;27.28;100021.81;5090031;28;20020;-37
2022/07/14 04:59:49;;;;;;;7.25;1.67;;;;;;;29.60;26.92;100026.31;5090421;28;20633;-37
2022/07/14 05:02:14;;;;;;;6.35;1.90;;;;;;;28.99;27.86;100029.81;5091625;28;20100;-36
2022/07/14 05:04:40;;;;;;;4.43;1.70;;;;;;;29.36;27.64;100021.34;5091023;28;20028;-37
2022/07/14 05:07:06;;;;;;;2.67;1.70;;;;;;;29.79;27.34;100023.25;5090565;28;20027;-44
2022/07/14 05:09:34;;;;;;;1.95;1.40;;;;;;;29.76;27.08;100019.25;5090536;28;20039;-44
2022/07/14 05:12:01;;;;;;;4.10;1.60;;;;;;;30.18;26.13;100024.13;5090665;28;20033;-45
2022/07/14 05:14:29;;;;;;;2.42;1.70;;;;;;;30.09;26.23;100020.63;5090228;28;20406;-43
2022/07/14 05:16:55;;;;;;;5.88;1.70;;;;;;;30.03;26.85;100030.97;5090160;28;20050;-45
2022/07/14 05:19:20;;;;;;;5.00;1.85;;;;;;;30.10;25.78;100019.47;5089932;28;20074;-45
2022/07/14 05:21:46;;;;;;;7.22;2.28;;;;;;;30.64;25.62;100036.22;5090806;28;20074;-44
2022/07/14 05:24:12;;;;;;;5.65;2.03;;;;;;;31.03;25.28;100039.72;5090694;28;20028;-45
2022/07/14 05:26:38;;;;;;;3.60;1.50;;;;;;;31.75;24.16;100037.69;5090876;28;20024;-46
2022/07/14 05:29:04;;;;;;;2.45;1.40;;;;;;;31.06;25.05;100044.56;5090249;28;20034;-45
2022/07/14 05:31:29;;;;;;;7.88;2.47;;;;;;;31.12;25.17;100051.44;5090470;28;20043;-42
2022/07/14 05:33:57;;;;;;;4.80;2.33;;;;;;;31.03;25.45;100047.97;5090619;28;20067;-43
2022/07/14 05:36:24;;;;;;;6.70;2.47;;;;;;;30.56;26.12;100042.56;5090573;28;20111;-45
2022/07/14 05:38:50;;;;;;;7.57;3.50;;;;;;;31.81;24.31;100052.03;5090107;28;20020;-42
2022/07/14 05:41:17;;;;;;;5.18;3.20;;;;;;;31.47;24.51;100051.22;5090138;28;20073;-46
2022/07/14 05:43:42;;;;;;;5.32;3.40;;;;;;;30.87;25.15;100047.72;5088694;28;20074;-44
2022/07/14 05:46:10;;;;;;;5.28;1.73;;;;;;;31.39;24.63;100052.06;5089971;28;20463;-43
2022/07/14 05:48:37;;;;;;;8.07;1.90;;;;;;;31.86;24.28;100054.56;5089259;28;20028;-44
2022/07/14 05:51:14;;;;;;;9.35;1.83;;;;;;;32.85;23.46;100054.72;5089806;28;20056;-42
2022/07/14 05:53:41;;;;;;;3.63;1.50;;;;;;;32.04;23.90;100048.91;5088254;28;20562;-44
2022/07/14 05:56:07;;;;;;;6.15;1.77;;;;;;;31.68;24.42;100053.94;5087692;28;20028;-45
2022/07/14 05:58:33;;;;;;;4.55;1.50;;;;;;;32.11;24.16;100055.47;5086067;28;20054;-43
2022/07/14 06:00:59;;;;;;;2.53;1.50;;;;;;;32.45;23.74;100047.13;5069291;28;20046;-45
2022/07/14 06:03:24;;;;;;;4.18;1.60;;;;;;;33.02;23.09;100053.66;5069044;28;20050;-45
2022/07/14 06:05:50;;;;;;;4.68;1.63;;;;;;;32.60;23.26;100051.19;5069026;28;20484;-44
2022/07/14 06:08:16;;;;;;;9.35;1.90;;;;;;;32.50;23.56;100049.66;5068948;28;20446;-43
2022/07/14 06:10:41;;;;;;;6.93;1.60;;;;;;;32.65;23.29;100051.75;5068836;28;20021;-43
2022/07/14 06:13:07;;;;;;;5.70;1.77;;;;;;;32.23;23.69;100062.13;5067208;28;20017;-45
2022/07/14 06:15:32;;;;;;;6.85;1.80;;;;;;;32.21;23.93;100062.47;5067798;28;20038;-44
2022/07/14 06:17:57;;;;;;;3.83;1.80;;;;;;;32.90;23.42;100051.72;5067412;28;20104;-45
2022/07/14 06:20:23;;;;;;;2.35;1.58;;;;;;;32.65;23.41;100056.44;5066841;28;20480;-45
2022/07/14 06:22:51;;;;;;;11.73;1.95;;;;;;;32.34;23.63;100058.59;5066905;28;20020;-43
2022/07/14 06:25:17;;;;;;;8.90;2.00;;;;;;;32.14;23.66;100040.22;5067186;28;20100;-45
2022/07/14 06:27:42;;;;;;;6.10;2.00;;;;;;;31.83;24.05;100041.47;5067389;28;20111;-44
2022/07/14 06:30:08;;;;;;;10.25;2.65;;;;;;;31.98;24.23;100044.75;5068003;28;20024;-46
2022/07/14 06:32:39;;;;;;;4.05;1.83;;;;;;;32.66;23.51;100038.78;5068677;28;20499;-42
2022/07/14 06:35:08;;;;;;;4.32;1.80;;;;;;;33.35;23.29;100042.44;5068538;28;20024;-47
2022/07/14 06:37:35;;;;;;;5.65;1.73;;;;;;;32.88;23.40;100043.81;5068835;28;20024;-47
2022/07/14 06:40:06;;;;;;;4.07;1.70;;;;;;;32.54;24.03;100036.81;5068935;28;20028;-46
2022/07/14 06:42:34;;;;;;;4.57;1.60;;;;;;;33.84;22.52;100035.94;5068750;28;20024;-45
2022/07/14 06:45:00;;;;;;;3.58;1.50;;;;;;;33.82;22.50;100035.50;5068345;28;20030;-42
2022/07/14 06:47:25;;;;;;;7.32;1.70;;;;;;;33.69;22.68;100038.31;5068708;28;20374;-47
2022/07/14 06:49:51;;;;;;;3.15;1.50;;;;;;;33.81;22.57;100033.88;5068207;28;20076;-44
2022/07/14 06:52:16;;;;;;;4.55;1.52;;;;;;;34.36;22.56;100026.63;5068334;28;20017;-44
2022/07/14 06:54:42;;;;;;;5.50;1.90;;;;;;;34.49;22.02;100029.31;5068193;28;20074;-43
2022/07/14 06:57:08;;;;;;;3.78;1.50;;;;;;;34.93;21.21;100023.63;5068711;28;20046;-45
2022/07/14 06:59:33;;;;;;;3.47;1.73;;;;;;;34.97;21.15;100028.06;5080021;28;20051;-45
2022/07/14 07:01:58;;;;;;;2.25;1.33;;;;;;;34.70;21.03;100020.75;5088453;28;20172;-43
2022/07/14 07:04:24;;;;;;;6.10;1.40;;;;;;;34.68;20.91;100012.81;5087433;28;20074;-45
2022/07/14 07:06:50;;;;;;;4.75;1.35;;;;;;;35.00;20.65;100023.78;5087151;28;20171;-45
2022/07/14 07:09:18;;;;;;;6.05;1.60;;;;;;;35.69;20.35;100026.00;5088355;28;20088;-43
2022/07/14 07:11:45;;;;;;;5.38;1.30;;;;;;;35.21;20.65;100018.72;5091009;28;20042;-46
2022/07/14 07:14:11;;;;;;;5.18;1.63;;;;;;;34.36;21.56;100015.59;5092230;28;20020;-44
2022/07/14 07:16:37;;;;;;;5.22;1.63;;;;;;;34.82;20.92;100009.56;5092526;28;20016;-45
2022/07/14 07:19:03;;;;;;;3.88;1.40;;;;;;;34.62;20.73;100023.31;5091969;28;20020;-43
2022/07/14 07:21:29;;;;;;;4.18;1.63;;;;;;;35.26;20.32;100023.16;5093155;28;20380;-43
2022/07/14 07:23:54;;;;;;;6.18;2.15;;;;;;;35.73;20.21;100015.81;5093168;28;20451;-42
2022/07/14 07:26:22;;;;;;;3.20;1.73;;;;;;;35.43;20.38;100017.22;5093353;28;20020;-43
2022/07/14 07:28:48;;;;;;;2.85;1.58;;;;;;;35.72;20.83;100009.47;5093098;28;20031;-42
2022/07/14 07:31:13;;;;;;;4.43;1.17;;;;;;;35.80;20.17;100005.66;5092820;28;20103;-44
2022/07/14 07:33:39;;;;;;;5.32;1.50;;;;;;;36.10;20.01;100005.00;5092886;28;20487;-42
2022/07/14 07:36:05;;;;;;;5.65;1.40;;;;;;;36.26;19.88;100007.66;5092608;28;20391;-44
2022/07/14 07:38:30;;;;;;;3.53;1.70;;;;;;;35.82;20.06;100008.84;5092650;28;20016;-42
2022/07/14 07:40:56;;;;;;;4.20;1.73;;;;;;;35.73;20.06;100005.53;5092699;28;20097;-42
2022/07/14 07:43:22;;;;;;;4.30;1.50;;;;;;;35.56;20.14;100000.44;5092540;28;20024;-43
2022/07/14 07:45:48;;;;;;;3.40;1.60;;;;;;;36.12;20.46;99997.13;5092111;28;20035;-43
2022/07/14 07:48:13;;;;;;;2.53;1.45;;;;;;;36.53;19.80;99991.81;5092512;28;20078;-43
2022/07/14 07:50:44;;;;;;;4.57;1.60;;;;;;;36.87;19.66;99996.69;5092200;28;20052;-42
2022/07/14 07:53:10;;;;;;;3.92;1.50;;;;;;;36.55;19.91;99992.25;5092320;28;20031;-42
2022/07/14 07:55:36;;;;;;;4.20;1.90;;;;;;;36.38;19.44;99993.56;5091025;28;20141;-43
2022/07/14 07:58:02;;;;;;;6.10;1.50;;;;;;;35.84;19.42;99986.34;5092302;28;20024;-44
2022/07/14 08:00:27;;;;;;;5.38;1.63;;;;;;;35.79;18.99;99989.41;5092430;28;20450;-44
2022/07/14 08:02:54;;;;;;;3.40;1.20;;;;;;;35.61;18.76;100002.91;5091806;28;20089;-44
2022/07/14 08:05:22;;;;;;;3.33;1.08;;;;;;;36.42;18.51;99990.06;5092449;28;20024;-44
2022/07/14 08:07:51;;;;;;;;;;;;;;;36.09;18.40;99986.78;5092558;28;20063;-44
2022/07/14 08:10:17;;;;;;;4.45;1.17;;;;;;;35.90;18.57;99981.31;5092558;28;20027;-41
2022/07/14 08:12:43;;;;;;;2.40;1.30;;;;;;;35.89;18.97;99982.47;5092289;28;20483;-44
2022/07/14 08:15:09;;;;;;;2.72;1.20;;;;;;;35.91;18.94;99985.66;5092010;28;20027;-45
2022/07/14 08:17:35;;;;;;;4.18;1.17;;;;;;;35.84;19.00;99977.25;5091843;28;20055;-43
2022/07/14 08:20:01;;;;;;;2.72;1.10;;;;;;;36.50;18.33;99975.13;5092161;28;20161;-43
2022/07/14 08:22:28;;;;;;;2.92;1.17;;;;;;;36.78;18.70;99978.38;5091857;28;20020;-43
2022/07/14 08:24:55;;;;;;;6.93;1.40;;;;;;;36.65;17.79;99978.91;5091642;28;20067;-43
2022/07/14 08:27:21;;;;;;;3.80;1.30;;;;;;;36.48;18.30;99966.41;5091883;28;20098;-42
2022/07/14 08:29:46;;;;;;;4.38;1.27;;;;;;;36.01;19.22;99972.00;5091581;28;20024;-44
2022/07/14 08:32:12;;;;;;;2.80;1.30;;;;;;;36.05;19.43;99971.28;5091898;28;20028;-44
2022/07/14 08:34:38;;;;;;;4.38;1.35;;;;;;;36.47;19.18;99971.16;5091548;28;20024;-44
2022/07/14 08:37:05;;;;;;;2.53;1.75;;;;;;;37.17;17.75;99966.19;5092003;28;20016;-43
2022/07/14 08:39:31;;;;;;;3.42;1.80;;;;;;;36.17;19.30;99969.13;5091588;28;20103;-45
2022/07/14 08:41:59;;;;;;;3.28;1.75;;;;;;;35.86;18.93;99967.41;5092052;28;20059;-44
2022/07/14 08:44:26;;;;;;;1.60;1.40;;;;;;;35.66;19.08;99968.59;5091571;28;20024;-44
2022/07/14 08:46:53;;;;;;;4.70;1.55;;;;;;;35.91;19.41;99971.81;5091902;28;20024;-43
2022/07/14 08:49:19;;;;;;;2.42;1.70;;;;;;;36.00;18.90;99966.84;5080703;28;20119;-45
2022/07/14 08:51:45;;;;;;;6.32;2.00;;;;;;;35.90;18.89;99959.94;5070799;28;20153;-44
2022/07/14 08:54:11;;;;;;;4.18;2.70;;;;;;;35.60;18.75;99957.84;5071102;28;20627;-43
2022/07/14 08:56:37;;;;;;;3.88;2.13;;;;;;;36.20;19.11;99956.50;5070933;28;20096;-45
2022/07/14 08:59:03;;;;;;;4.97;1.58;;;;;;;36.72;19.01;99956.88;5078349;28;20480;-45
2022/07/14 09:01:29;;;;;;;2.67;1.30;;;;;;;36.47;18.70;99954.53;5090738;28;20084;-43
2022/07/14 09:03:55;;;;;;;2.00;1.42;;;;;;;36.06;18.50;99951.50;5091046;28;20047;-43
2022/07/14 09:06:44;;;;;;;2.47;1.17;;;;;;;36.15;18.46;99942.94;5091081;28;20020;-43
2022/07/14 09:09:16;;;;;;;3.72;1.30;;;;;;;35.94;17.80;99949.72;5090966;28;20030;-44
2022/07/14 09:12:01;;;;;;;2.72;1.30;;;;;;;36.07;18.66;99949.56;5090828;28;20032;-46
2022/07/14 09:14:28;;;;;;;3.53;2.08;;;;;;;35.62;18.51;99944.44;5091205;28;20107;-46
2022/07/14 09:17:14;;;;;;;4.27;2.20;;;;;;;35.17;19.19;99947.91;5090916;28;20020;-44
2022/07/14 09:20:03;;;;;;;2.78;1.98;;;;;;;35.11;18.41;99939.09;5090818;28;20254;-45
2022/07/14 09:22:32;;;;;;;5.80;1.80;;;;;;;35.29;18.88;99942.25;5089931;28;20078;-43
2022/07/14 09:24:58;;;;;;;4.72;2.30;;;;;;;35.23;18.95;99936.19;5090281;28;20028;-46
2022/07/14 09:27:23;;;;;;;4.97;1.95;;;;;;;35.40;19.04;99939.69;5090715;28;20046;-43
2022/07/14 09:29:55;;;;;;;8.43;3.10;;;;;;;34.42;19.67;99939.59;5090435;28;20145;-46
2022/07/14 09:32:46;;;;;;;2.67;2.05;;;;;;;34.97;18.67;99934.06;5090229;28;20415;-46
2022/07/14 09:35:12;;;;;;;3.67;1.80;;;;;;;35.13;18.78;99938.72;5089817;28;20146;-45
2022/07/14 09:37:39;;;;;;;2.65;1.50;;;;;;;34.96;18.45;99926.97;5090660;28;20023;-44
2022/07/14 09:40:09;;;;;;;3.28;1.88;;;;;;;35.24;19.06;99928.69;5090161;28;20032;-43
2022/07/14 09:42:59;;;;;;;2.80;1.70;;;;;;;35.41;18.11;99919.97;5090267;28;20032;-42
2022/07/14 09:45:34;;;;;;;;;;;;;;;35.69;18.11;99921.66;5090827;28;20081;-43
2022/07/14 09:47:59;;;;;;;3.50;1.50;;;;;;;35.75;17.73;99913.84;5090378;28;19908;-45
2022/07/14 09:50:43;;;;;;;3.17;1.40;;;;;;;35.56;17.76;99909.13;5090110;28;20620;-44
2022/07/14 09:53:18;;;;;;;5.75;1.35;;;;;;;35.13;18.82;99906.38;5089887;28;20035;-43
2022/07/14 09:55:53;;;;;;;2.88;1.33;;;;;;;34.90;18.46;99902.72;5089970;28;20039;-44
2022/07/14 09:58:21;;;;;;;2.83;1.40;;;;;;;35.25;18.39;99910.94;5090451;28;20076;-46
2022/07/14 10:00:58;;;;;;;4.37;2.10;;;;;;;34.75;18.57;99898.88;5089967;28;20548;-42
2022/07/14 10:03:25;;;;;;;13.88;3.10;;;;;;;34.86;19.32;99897.13;5089881;28;20407;-48
2022/07/14 10:05:54;;;;;;;2.27;1.30;;;;;;;35.12;18.42;99903.97;5089711;28;20032;-45
2022/07/14 10:08:31;;;;;;;2.30;1.20;;;;;;;34.75;18.66;99894.16;5089766;28;20077;-43
2022/07/14 10:10:58;;;;;;;2.05;1.20;;;;;;;34.65;18.74;99890.00;5089738;28;20028;-44
2022/07/14 10:13:25;;;;;;;3.38;2.28;;;;;;;34.90;19.22;99891.66;5090180;28;20020;-43
2022/07/14 10:15:56;;;;;;;3.58;1.60;;;;;;;35.29;18.98;99886.13;5089833;28;20097;-43
2022/07/14 10:18:24;;;;;;;1.90;1.30;;;;;;;35.19;18.46;99888.34;5090124;28;20028;-43
2022/07/14 10:20:52;;;;;;;2.63;1.10;;;;;;;34.19;19.22;99884.22;5089904;28;20051;-41
2022/07/14 10:23:18;;;;;;;6.63;1.20;;;;;;;33.98;19.10;99867.94;5089375;28;20032;-46
2022/07/14 10:25:51;;;;;;;3.05;1.40;;;;;;;34.31;18.85;99882.50;5089251;28;20028;-42
2022/07/14 10:28:18;;;;;;;4.07;1.50;;;;;;;34.22;18.88;99877.22;5089444;28;20028;-43
2022/07/14 10:31:07;;;;;;;4.93;2.10;;;;;;;34.43;19.54;99882.41;5089587;28;20051;-43
2022/07/14 10:33:55;;;;;;;2.77;1.43;;;;;;;34.93;19.39;99879.91;5089157;28;20024;-44
2022/07/14 10:36:41;;;;;;;3.65;2.13;;;;;;;35.31;18.46;99875.50;5089800;28;20110;-46
2022/07/14 10:39:22;;;;;;;4.30;1.90;;;;;;;35.39;18.54;99879.97;5089293;28;20020;-46
2022/07/14 10:42:11;;;;;;;2.15;1.50;;;;;;;35.40;18.91;99868.56;5089451;28;20047;-46
2022/07/14 10:44:38;;;;;;;6.53;1.58;;;;;;;35.80;18.65;99860.94;5089420;28;20116;-43
2022/07/14 10:47:09;;;;;;;1.77;1.50;;;;;;;35.69;18.29;99854.44;5092649;28;20031;-43
2022/07/14 10:50:00;;;;;;;3.88;1.92;;;;;;;35.88;17.77;99851.56;5080843;28;20110;-42
2022/07/14 10:52:30;;;;;;;1.90;1.52;;;;;;;35.68;18.62;99850.06;5073318;28;20032;-46
2022/07/14 10:55:10;;;;;;;3.17;1.75;;;;;;;35.41;18.78;99858.28;5073157;28;20040;-44
2022/07/14 10:57:35;;;;;;;2.45;1.80;;;;;;;35.08;18.71;99854.13;5073211;28;20039;-44
2022/07/14 11:00:01;;;;;;;1.45;1.33;;;;;;;34.72;18.97;99853.44;5088438;28;20028;-43
2022/07/14 11:02:28;;;;;;;4.43;1.63;;;;;;;35.02;18.58;99848.09;5093394;28;20097;-44
2022/07/14 11:04:57;;;;;;;1.48;1.30;;;;;;;35.08;18.35;99842.28;5093180;28;20510;-43
2022/07/14 11:08:08;;;;;;;3.50;1.50;;;;;;;34.12;19.42;99848.16;5093517;28;20028;-44
2022/07/14 11:10:36;;;;;;;2.42;1.30;;;;;;;33.87;20.54;99840.13;5084607;28;20040;-43
2022/07/14 11:13:05;;;;;;;3.17;1.35;;;;;;;33.79;20.00;99843.06;5093179;28;20115;-44
2022/07/14 11:15:42;;;;;;;3.67;1.40;;;;;;;33.74;20.23;99843.31;5093185;28;20028;-43
2022/07/14 11:18:26;;;;;;;1.50;1.17;;;;;;;33.94;20.26;99835.91;5092912;28;20468;-44
2022/07/14 11:21:03;;;;;;;1.80;1.30;;;;;;;33.85;20.70;99834.16;5092691;28;20028;-44
2022/07/14 11:23:29;;;;;;;5.20;1.10;;;;;;;33.77;20.56;99826.06;5093127;28;20027;-45
2022/07/14 11:25:56;;;;;;;2.50;1.30;;;;;;;33.78;20.49;99830.44;5092850;28;20515;-43
2022/07/14 11:28:39;;;;;;;2.17;1.30;;;;;;;34.06;19.62;99831.09;5092860;28;20027;-45
2022/07/14 11:31:10;;;;;;;2.47;1.30;;;;;;;34.20;20.20;99833.38;5092389;28;20064;-46
2022/07/14 11:33:37;;;;;;;2.95;1.50;;;;;;;34.06;19.95;99828.31;5092589;28;20119;-44
2022/07/14 11:36:19;;;;;;;2.03;1.23;;;;;;;34.11;20.12;99824.47;5092890;28;20020;-45
2022/07/14 11:38:45;;;;;;;4.05;1.30;;;;;;;34.30;20.14;99826.50;5092610;28;20027;-45
2022/07/14 11:41:14;;;;;;;2.65;1.48;;;;;;;34.23;19.84;99827.16;5092561;28;20020;-46